Terminal Aerodrome Forecast
Issued by NWS Albany, NY

Home | Current Version | Previous Version | Text Only | Print | Product List | Glossary On
Versions: 1 2 3 4 5 6 7 8 9 10 11 12 13 14 15 16 17 18 19 20 21 22 23 24
000
FTUS41 KALY 202300
TAFALB
TAF
KALB 202337Z 2100/2124 30010KT P6SM VCSH SCT015 SCT035 BKN080
     FM210400 28010KT P6SM VCSH BKN040 OVC070
     FM211300 27015G25KT P6SM BKN035
     FM211800 27012G22KT P6SM SCT035=

USA.gov is the U.S. government's official web portal to all federal, state and local government web resources and services.